Sao Francisco, Brazil
Current Conditions -  °F | °C
As of 11:00 AM on Friday 24 Oct 2014 (Local Time) from SBAU Reporting Station
Thunderstorm Thunderstorm  
Wind Chill: 77°   Ceiling: Unl
Heat Index: 79°   Visibility: 4mi
Dew Point: 68°   Wind: 5mph
Humidity: 74%   Direction: 240°WSW
Pressure: 30.03"   Gusts: NA
Location:  20.36°S, 50.7°W
Report Text: SBAU 241300Z 24004KT 7000 TSRA SCT040CB SCT080 25/20 Q1017
Loading
Personal Weather Stations






























Interactive Weather Map
Tropical Storm Tracking
New forecast layout! Learn more

10-Day Weather Forecast

Advertisements
Track Severe Weather on mobile